sensor_id;sensor_type;location;lat;lon;timestamp;pressure;altitude;pressure_sealevel;temperature;humidity
69239;BME280;56349;51.816;-0.026;2023-05-09T00:01:36;100749.92;;;23.68;36.39
69239;BME280;56349;51.816;-0.026;2023-05-09T00:04:03;100746.06;;;23.59;36.53
69239;BME280;56349;51.816;-0.026;2023-05-09T00:06:29;100744.88;;;23.73;36.66
69239;BME280;56349;51.816;-0.026;2023-05-09T00:08:54;100742.18;;;23.68;36.71
69239;BME280;56349;51.816;-0.026;2023-05-09T00:11:21;100737.20;;;23.62;36.80
69239;BME280;56349;51.816;-0.026;2023-05-09T00:13:45;100734.67;;;23.33;36.87
69239;BME280;56349;51.816;-0.026;2023-05-09T00:16:11;100732.51;;;23.26;36.98
69239;BME280;56349;51.816;-0.026;2023-05-09T00:18:37;100731.05;;;22.93;37.07
69239;BME280;56349;51.816;-0.026;2023-05-09T00:21:04;100728.21;;;23.35;37.16
69239;BME280;56349;51.816;-0.026;2023-05-09T00:23:29;100731.47;;;23.10;37.20
69239;BME280;56349;51.816;-0.026;2023-05-09T00:25:53;100722.13;;;23.30;37.24
69239;BME280;56349;51.816;-0.026;2023-05-09T00:28:19;100715.17;;;23.25;37.30
69239;BME280;56349;51.816;-0.026;2023-05-09T00:30:45;100712.98;;;23.17;37.40
69239;BME280;56349;51.816;-0.026;2023-05-09T00:33:11;100708.47;;;22.90;37.46
69239;BME280;56349;51.816;-0.026;2023-05-09T00:35:37;100708.60;;;23.07;37.53
69239;BME280;56349;51.816;-0.026;2023-05-09T00:38:03;100704.79;;;23.02;37.58
69239;BME280;56349;51.816;-0.026;2023-05-09T00:40:29;100702.45;;;22.99;37.62
69239;BME280;56349;51.816;-0.026;2023-05-09T00:42:55;100699.23;;;23.00;37.61
69239;BME280;56349;51.816;-0.026;2023-05-09T00:45:21;100699.18;;;22.99;37.62
69239;BME280;56349;51.816;-0.026;2023-05-09T00:47:47;100693.71;;;22.92;37.68
69239;BME280;56349;51.816;-0.026;2023-05-09T00:50:13;100691.66;;;22.87;37.76
69239;BME280;56349;51.816;-0.026;2023-05-09T00:52:39;100684.21;;;22.86;37.78
69239;BME280;56349;51.816;-0.026;2023-05-09T00:55:05;100679.34;;;22.89;37.75
69239;BME280;56349;51.816;-0.026;2023-05-09T00:57:31;100674.21;;;22.92;37.72
69239;BME280;56349;51.816;-0.026;2023-05-09T00:59:56;100668.70;;;22.93;37.70
69239;BME280;56349;51.816;-0.026;2023-05-09T01:02:21;100665.43;;;22.94;37.69
69239;BME280;56349;51.816;-0.026;2023-05-09T01:04:47;100666.06;;;22.92;37.70
69239;BME280;56349;51.816;-0.026;2023-05-09T01:07:21;100666.97;;;22.90;37.73
69239;BME280;56349;51.816;-0.026;2023-05-09T01:09:44;100659.16;;;22.87;37.76
69239;BME280;56349;51.816;-0.026;2023-05-09T01:12:11;100656.63;;;22.79;37.86
69239;BME280;56349;51.816;-0.026;2023-05-09T01:14:34;100653.23;;;22.74;37.93
69239;BME280;56349;51.816;-0.026;2023-05-09T01:16:59;100649.35;;;22.95;37.99
69239;BME280;56349;51.816;-0.026;2023-05-09T01:19:35;100644.72;;;22.65;38.02
69239;BME280;56349;51.816;-0.026;2023-05-09T01:21:48;100641.33;;;22.59;38.12
69239;BME280;56349;51.816;-0.026;2023-05-09T01:24:24;100640.57;;;22.58;38.15
69239;BME280;56349;51.816;-0.026;2023-05-09T01:26:43;100635.15;;;22.58;38.15
69239;BME280;56349;51.816;-0.026;2023-05-09T01:31:27;100626.88;;;22.63;38.08
69239;BME280;56349;51.816;-0.026;2023-05-09T01:33:57;100623.90;;;22.91;38.06
69239;BME280;56349;51.816;-0.026;2023-05-09T01:36:18;100621.51;;;22.64;38.06
69239;BME280;56349;51.816;-0.026;2023-05-09T01:38:44;100618.88;;;22.65;38.04
69239;BME280;56349;51.816;-0.026;2023-05-09T01:43:35;100616.42;;;22.65;38.03
69239;BME280;56349;51.816;-0.026;2023-05-09T01:46:00;100614.86;;;22.64;38.06
69239;BME280;56349;51.816;-0.026;2023-05-09T01:48:26;100614.56;;;22.62;38.07
69239;BME280;56349;51.816;-0.026;2023-05-09T01:50:51;100612.07;;;22.62;38.06
69239;BME280;56349;51.816;-0.026;2023-05-09T01:53:16;100612.33;;;22.61;38.07
69239;BME280;56349;51.816;-0.026;2023-05-09T01:55:42;100609.37;;;22.60;38.08
69239;BME280;56349;51.816;-0.026;2023-05-09T01:58:07;100609.42;;;22.59;38.12
69239;BME280;56349;51.816;-0.026;2023-05-09T02:00:33;100610.55;;;22.57;38.13
69239;BME280;56349;51.816;-0.026;2023-05-09T02:02:58;100611.62;;;22.55;38.15
69239;BME280;56349;51.816;-0.026;2023-05-09T02:05:26;100610.32;;;22.52;38.18
69239;BME280;56349;51.816;-0.026;2023-05-09T02:07:50;100607.66;;;23.00;38.19
69239;BME280;56349;51.816;-0.026;2023-05-09T02:10:17;100602.54;;;22.49;38.22
69239;BME280;56349;51.816;-0.026;2023-05-09T02:12:42;100597.10;;;22.48;38.23
69239;BME280;56349;51.816;-0.026;2023-05-09T02:15:09;100591.45;;;22.47;38.25
69239;BME280;56349;51.816;-0.026;2023-05-09T02:17:33;100586.19;;;22.46;38.25
69239;BME280;56349;51.816;-0.026;2023-05-09T02:19:59;100588.54;;;22.75;38.23
69239;BME280;56349;51.816;-0.026;2023-05-09T02:22:26;100582.88;;;22.95;38.25
69239;BME280;56349;51.816;-0.026;2023-05-09T02:24:51;100581.08;;;22.44;38.29
69239;BME280;56349;51.816;-0.026;2023-05-09T02:27:16;100578.98;;;22.43;38.30
69239;BME280;56349;51.816;-0.026;2023-05-09T02:29:48;100577.92;;;22.42;38.32
69239;BME280;56349;51.816;-0.026;2023-05-09T02:32:09;100576.33;;;22.65;38.34
69239;BME280;56349;51.816;-0.026;2023-05-09T02:34:34;100578.31;;;22.63;38.37
69239;BME280;56349;51.816;-0.026;2023-05-09T02:36:59;100580.29;;;22.35;38.39
69239;BME280;56349;51.816;-0.026;2023-05-09T02:39:25;100577.71;;;22.35;38.39
69239;BME280;56349;51.816;-0.026;2023-05-09T02:41:51;100573.55;;;22.35;38.38
69239;BME280;56349;51.816;-0.026;2023-05-09T02:44:16;100574.58;;;22.32;38.41
69239;BME280;56349;51.816;-0.026;2023-05-09T02:46:42;100577.54;;;22.59;38.41
69239;BME280;56349;51.816;-0.026;2023-05-09T02:49:08;100581.38;;;22.58;38.41
69239;BME280;56349;51.816;-0.026;2023-05-09T02:51:34;100586.50;;;22.30;38.43
69239;BME280;56349;51.816;-0.026;2023-05-09T02:54:00;100591.60;;;22.57;38.44
69239;BME280;56349;51.816;-0.026;2023-05-09T02:56:26;100591.16;;;22.55;38.45
69239;BME280;56349;51.816;-0.026;2023-05-09T02:58:52;100586.03;;;22.52;38.48
69239;BME280;56349;51.816;-0.026;2023-05-09T03:01:18;100578.77;;;22.49;38.51
69239;BME280;56349;51.816;-0.026;2023-05-09T03:03:44;100578.84;;;22.47;38.53
69239;BME280;56349;51.816;-0.026;2023-05-09T03:06:10;100575.86;;;22.19;38.55
69239;BME280;56349;51.816;-0.026;2023-05-09T03:08:35;100575.03;;;22.45;38.56
69239;BME280;56349;51.816;-0.026;2023-05-09T03:11:01;100581.60;;;22.17;38.57
69239;BME280;56349;51.816;-0.026;2023-05-09T03:13:27;100585.74;;;22.17;38.57
69239;BME280;56349;51.816;-0.026;2023-05-09T03:15:53;100591.20;;;22.16;38.59
69239;BME280;56349;51.816;-0.026;2023-05-09T03:18:19;100594.12;;;22.16;38.59
69239;BME280;56349;51.816;-0.026;2023-05-09T03:20:45;100592.55;;;22.14;38.60
69239;BME280;56349;51.816;-0.026;2023-05-09T03:23:10;100592.29;;;22.39;38.63
69239;BME280;56349;51.816;-0.026;2023-05-09T03:25:36;100587.32;;;22.39;38.62
69239;BME280;56349;51.816;-0.026;2023-05-09T03:28:02;100587.66;;;22.62;38.59
69239;BME280;56349;51.816;-0.026;2023-05-09T03:30:28;100586.39;;;22.62;38.68
69239;BME280;56349;51.816;-0.026;2023-05-09T03:32:54;100584.51;;;22.67;38.75
69239;BME280;56349;51.816;-0.026;2023-05-09T03:35:20;100589.73;;;22.29;38.76
69239;BME280;56349;51.816;-0.026;2023-05-09T03:37:45;100585.36;;;22.45;38.69
69239;BME280;56349;51.816;-0.026;2023-05-09T03:40:11;100585.00;;;22.64;38.54
69239;BME280;56349;51.816;-0.026;2023-05-09T03:42:36;100585.81;;;22.87;38.33
69239;BME280;56349;51.816;-0.026;2023-05-09T03:45:02;100582.68;;;23.10;38.05
69239;BME280;56349;51.816;-0.026;2023-05-09T03:47:28;100583.77;;;23.08;37.80
69239;BME280;56349;51.816;-0.026;2023-05-09T03:49:54;100581.80;;;23.46;37.53
69239;BME280;56349;51.816;-0.026;2023-05-09T03:52:20;100577.72;;;23.34;37.32
69239;BME280;56349;51.816;-0.026;2023-05-09T03:54:46;100574.52;;;23.40;37.15
69239;BME280;56349;51.816;-0.026;2023-05-09T03:57:11;100574.70;;;23.18;37.00
69239;BME280;56349;51.816;-0.026;2023-05-09T03:59:37;100579.19;;;23.44;36.92
69239;BME280;56349;51.816;-0.026;2023-05-09T04:02:03;100578.99;;;23.39;36.89
69239;BME280;56349;51.816;-0.026;2023-05-09T04:04:29;100581.57;;;23.36;36.86
69239;BME280;56349;51.816;-0.026;2023-05-09T04:06:55;100578.89;;;23.33;36.84
69239;BME280;56349;51.816;-0.026;2023-05-09T04:09:21;100579.48;;;23.27;36.86
69239;BME280;56349;51.816;-0.026;2023-05-09T04:11:47;100575.95;;;23.44;36.86
69239;BME280;56349;51.816;-0.026;2023-05-09T04:14:13;100576.26;;;23.15;36.90
69239;BME280;56349;51.816;-0.026;2023-05-09T04:16:39;100577.48;;;23.08;36.94
69239;BME280;56349;51.816;-0.026;2023-05-09T04:19:04;100577.03;;;23.25;36.97
69239;BME280;56349;51.816;-0.026;2023-05-09T04:21:30;100572.41;;;22.96;37.02
69239;BME280;56349;51.816;-0.026;2023-05-09T04:23:56;100568.11;;;23.13;37.04
69239;BME280;56349;51.816;-0.026;2023-05-09T04:26:22;100564.55;;;23.09;37.08
69239;BME280;56349;51.816;-0.026;2023-05-09T04:28:48;100565.98;;;23.02;37.13
69239;BME280;56349;51.816;-0.026;2023-05-09T04:31:14;100563.86;;;22.94;37.20
69239;BME280;56349;51.816;-0.026;2023-05-09T04:33:40;100562.85;;;23.15;37.26
69239;BME280;56349;51.816;-0.026;2023-05-09T04:36:07;100555.72;;;22.83;37.32
69239;BME280;56349;51.816;-0.026;2023-05-09T04:38:31;100556.43;;;22.77;37.39
69239;BME280;56349;51.816;-0.026;2023-05-09T04:40:57;100551.82;;;22.70;37.44
69239;BME280;56349;51.816;-0.026;2023-05-09T04:43:23;100554.71;;;22.65;37.49
69239;BME280;56349;51.816;-0.026;2023-05-09T04:45:49;100559.11;;;22.60;37.55
69239;BME280;56349;51.816;-0.026;2023-05-09T04:48:15;100559.22;;;22.56;37.60
69239;BME280;56349;51.816;-0.026;2023-05-09T04:50:41;100559.41;;;22.53;37.63
69239;BME280;56349;51.816;-0.026;2023-05-09T04:53:06;100559.01;;;22.51;37.65
69239;BME280;56349;51.816;-0.026;2023-05-09T04:55:32;100559.24;;;22.76;37.68
69239;BME280;56349;51.816;-0.026;2023-05-09T04:57:58;100560.85;;;22.47;37.69
69239;BME280;56349;51.816;-0.026;2023-05-09T05:00:24;100562.00;;;22.70;37.74
69239;BME280;56349;51.816;-0.026;2023-05-09T05:02:50;100563.22;;;22.39;37.78
69239;BME280;56349;51.816;-0.026;2023-05-09T05:05:16;100562.08;;;22.62;37.82
69239;BME280;56349;51.816;-0.026;2023-05-09T05:07:42;100559.43;;;22.81;37.86
69239;BME280;56349;51.816;-0.026;2023-05-09T05:10:09;100555.70;;;22.28;37.91
69239;BME280;56349;51.816;-0.026;2023-05-09T05:12:34;100554.39;;;22.53;37.93
69239;BME280;56349;51.816;-0.026;2023-05-09T05:14:59;100553.73;;;22.22;37.97
69239;BME280;56349;51.816;-0.026;2023-05-09T05:17:25;100552.30;;;22.68;38.01
69239;BME280;56349;51.816;-0.026;2023-05-09T05:19:51;100547.73;;;22.66;38.03
69239;BME280;56349;51.816;-0.026;2023-05-09T05:22:17;100543.95;;;22.15;38.06
69239;BME280;56349;51.816;-0.026;2023-05-09T05:24:43;100540.10;;;22.14;38.08
69239;BME280;56349;51.816;-0.026;2023-05-09T05:27:09;100535.88;;;22.40;38.10
69239;BME280;56349;51.816;-0.026;2023-05-09T05:29:35;100536.45;;;22.59;38.15
69239;BME280;56349;51.816;-0.026;2023-05-09T05:32:00;100531.98;;;22.34;38.17
69239;BME280;56349;51.816;-0.026;2023-05-09T05:34:26;100527.06;;;22.05;38.20
69239;BME280;56349;51.816;-0.026;2023-05-09T05:36:52;100525.82;;;22.31;38.22
69239;BME280;56349;51.816;-0.026;2023-05-09T05:39:18;100524.28;;;22.30;38.24
69239;BME280;56349;51.816;-0.026;2023-05-09T05:41:44;100522.35;;;22.04;38.24
69239;BME280;56349;51.816;-0.026;2023-05-09T05:44:10;100517.25;;;22.03;38.24
69239;BME280;56349;51.816;-0.026;2023-05-09T05:46:36;100513.67;;;22.27;38.27
69239;BME280;56349;51.816;-0.026;2023-05-09T05:49:02;100512.11;;;22.27;38.28
69239;BME280;56349;51.816;-0.026;2023-05-09T05:51:27;100505.92;;;22.29;38.25
69239;BME280;56349;51.816;-0.026;2023-05-09T05:53:53;100507.90;;;22.01;38.29
69239;BME280;56349;51.816;-0.026;2023-05-09T05:56:19;100506.46;;;21.99;38.31
69239;BME280;56349;51.816;-0.026;2023-05-09T05:58:45;100503.75;;;21.99;38.32
69239;BME280;56349;51.816;-0.026;2023-05-09T06:01:11;100506.07;;;22.47;38.34
69239;BME280;56349;51.816;-0.026;2023-05-09T06:03:36;100505.19;;;22.24;38.36
69239;BME280;56349;51.816;-0.026;2023-05-09T06:06:03;100506.36;;;22.47;38.36
69239;BME280;56349;51.816;-0.026;2023-05-09T06:08:29;100510.75;;;22.24;38.36
69239;BME280;56349;51.816;-0.026;2023-05-09T06:10:54;100511.51;;;21.96;38.39
69239;BME280;56349;51.816;-0.026;2023-05-09T06:13:20;100513.90;;;22.44;38.41
69239;BME280;56349;51.816;-0.026;2023-05-09T06:15:46;100516.17;;;21.96;38.45
69239;BME280;56349;51.816;-0.026;2023-05-09T06:18:11;100518.53;;;22.22;38.48
69239;BME280;56349;51.816;-0.026;2023-05-09T06:20:37;100518.64;;;22.44;38.48
69239;BME280;56349;51.816;-0.026;2023-05-09T06:23:06;100523.01;;;21.95;38.51
69239;BME280;56349;51.816;-0.026;2023-05-09T06:25:29;100520.30;;;22.41;38.55
69239;BME280;56349;51.816;-0.026;2023-05-09T06:27:55;100517.48;;;22.36;38.70
69239;BME280;56349;51.816;-0.026;2023-05-09T06:30:21;100511.62;;;22.34;38.83
69239;BME280;56349;51.816;-0.026;2023-05-09T06:32:47;100512.38;;;22.13;39.05
69239;BME280;56349;51.816;-0.026;2023-05-09T06:35:12;100515.01;;;22.36;39.20
69239;BME280;56349;51.816;-0.026;2023-05-09T06:37:38;100519.76;;;22.34;39.48
69239;BME280;56349;51.816;-0.026;2023-05-09T06:40:05;100523.47;;;22.11;39.60
69239;BME280;56349;51.816;-0.026;2023-05-09T06:42:30;100527.34;;;22.42;39.51
69239;BME280;56349;51.816;-0.026;2023-05-09T06:44:56;100531.74;;;22.03;39.49
69239;BME280;56349;51.816;-0.026;2023-05-09T06:47:22;100529.54;;;22.65;39.63
69239;BME280;56349;51.816;-0.026;2023-05-09T06:49:47;100539.05;;;22.37;39.50
69239;BME280;56349;51.816;-0.026;2023-05-09T06:52:13;100533.48;;;22.62;39.35
69239;BME280;56349;51.816;-0.026;2023-05-09T06:54:39;100533.20;;;22.70;39.14
69239;BME280;56349;51.816;-0.026;2023-05-09T06:57:05;100529.26;;;23.25;38.91
69239;BME280;56349;51.816;-0.026;2023-05-09T06:59:31;100527.61;;;23.09;38.64
69239;BME280;56349;51.816;-0.026;2023-05-09T07:01:57;100518.35;;;23.76;38.23
69239;BME280;56349;51.816;-0.026;2023-05-09T07:04:22;100516.56;;;23.83;37.88
69239;BME280;56349;51.816;-0.026;2023-05-09T07:06:48;100515.33;;;23.96;37.51
69239;BME280;56349;51.816;-0.026;2023-05-09T07:09:14;100513.51;;;24.12;37.17
69239;BME280;56349;51.816;-0.026;2023-05-09T07:11:40;100510.02;;;24.45;36.82
69239;BME280;56349;51.816;-0.026;2023-05-09T07:14:06;100511.72;;;24.80;36.42
69239;BME280;56349;51.816;-0.026;2023-05-09T07:16:32;100512.94;;;24.89;36.05
69239;BME280;56349;51.816;-0.026;2023-05-09T07:18:58;100514.16;;;24.98;35.68
69239;BME280;56349;51.816;-0.026;2023-05-09T07:21:24;100516.42;;;25.29;35.37
69239;BME280;56349;51.816;-0.026;2023-05-09T07:23:50;100516.77;;;25.59;35.02
69239;BME280;56349;51.816;-0.026;2023-05-09T07:26:15;100520.05;;;25.86;34.65
69239;BME280;56349;51.816;-0.026;2023-05-09T07:28:41;100518.95;;;25.91;34.33
69239;BME280;56349;51.816;-0.026;2023-05-09T07:31:07;100517.26;;;26.37;34.03
69239;BME280;56349;51.816;-0.026;2023-05-09T07:33:33;100518.30;;;26.11;33.79
69239;BME280;56349;51.816;-0.026;2023-05-09T07:35:59;100521.42;;;26.32;33.51
69239;BME280;56349;51.816;-0.026;2023-05-09T07:38:25;100522.10;;;26.54;33.28
69239;BME280;56349;51.816;-0.026;2023-05-09T07:40:51;100521.90;;;26.74;33.03
69239;BME280;56349;51.816;-0.026;2023-05-09T07:43:17;100518.93;;;26.72;32.80
69239;BME280;56349;51.816;-0.026;2023-05-09T07:45:43;100510.99;;;27.12;32.54
69239;BME280;56349;51.816;-0.026;2023-05-09T07:48:09;100506.96;;;27.27;32.34
69239;BME280;56349;51.816;-0.026;2023-05-09T07:50:34;100507.77;;;27.17;32.10
69239;BME280;56349;51.816;-0.026;2023-05-09T07:53:00;100508.08;;;27.04;31.80
69239;BME280;56349;51.816;-0.026;2023-05-09T07:55:26;100508.74;;;27.14;31.55
69239;BME280;56349;51.816;-0.026;2023-05-09T07:57:52;100501.51;;;27.26;31.39
69239;BME280;56349;51.816;-0.026;2023-05-09T08:00:18;100502.39;;;27.36;31.25
69239;BME280;56349;51.816;-0.026;2023-05-09T08:02:43;100503.27;;;27.46;31.10
69239;BME280;56349;51.816;-0.026;2023-05-09T08:05:09;100505.87;;;27.53;30.98
69239;BME280;56349;51.816;-0.026;2023-05-09T08:07:35;100511.78;;;27.59;30.91
69239;BME280;56349;51.816;-0.026;2023-05-09T08:10:01;100517.24;;;27.44;30.82
69239;BME280;56349;51.816;-0.026;2023-05-09T08:12:27;100511.34;;;27.53;30.69
69239;BME280;56349;51.816;-0.026;2023-05-09T08:14:53;100509.42;;;27.57;30.60
69239;BME280;56349;51.816;-0.026;2023-05-09T08:17:18;100511.01;;;27.82;30.53
69239;BME280;56349;51.816;-0.026;2023-05-09T08:19:44;100507.99;;;27.67;30.44
69239;BME280;56349;51.816;-0.026;2023-05-09T08:22:15;100505.54;;;27.75;30.34
69239;BME280;56349;51.816;-0.026;2023-05-09T08:24:35;100502.93;;;27.58;30.25
69239;BME280;56349;51.816;-0.026;2023-05-09T08:27:01;100509.90;;;28.07;30.17
69239;BME280;56349;51.816;-0.026;2023-05-09T08:29:27;100503.23;;;27.89;30.10
69239;BME280;56349;51.816;-0.026;2023-05-09T08:31:53;100499.64;;;27.94;30.02
69239;BME280;56349;51.816;-0.026;2023-05-09T08:34:19;100497.94;;;27.98;29.94
69239;BME280;56349;51.816;-0.026;2023-05-09T08:36:44;100498.93;;;27.77;29.88
69239;BME280;56349;51.816;-0.026;2023-05-09T08:39:10;100497.74;;;27.80;29.82
69239;BME280;56349;51.816;-0.026;2023-05-09T08:41:36;100496.50;;;27.82;29.76
69239;BME280;56349;51.816;-0.026;2023-05-09T08:44:02;100496.51;;;28.05;29.72
69239;BME280;56349;51.816;-0.026;2023-05-09T08:46:32;100494.57;;;28.08;29.66
69239;BME280;56349;51.816;-0.026;2023-05-09T08:48:53;100493.47;;;28.34;29.60
69239;BME280;56349;51.816;-0.026;2023-05-09T08:51:19;100496.62;;;27.91;29.54
69239;BME280;56349;51.816;-0.026;2023-05-09T08:53:44;100497.23;;;27.94;29.48
69239;BME280;56349;51.816;-0.026;2023-05-09T08:56:09;100494.74;;;27.96;29.44
69239;BME280;56349;51.816;-0.026;2023-05-09T08:58:35;100493.68;;;28.45;29.37
69239;BME280;56349;51.816;-0.026;2023-05-09T09:01:01;100492.03;;;28.06;29.30
69239;BME280;56349;51.816;-0.026;2023-05-09T09:03:25;100492.91;;;28.11;29.21
69239;BME280;56349;51.816;-0.026;2023-05-09T09:05:51;100493.79;;;28.15;29.23
69239;BME280;56349;51.816;-0.026;2023-05-09T09:08:17;100490.97;;;28.18;29.20
69239;BME280;56349;51.816;-0.026;2023-05-09T09:10:43;100493.13;;;28.22;29.18
69239;BME280;56349;51.816;-0.026;2023-05-09T09:13:08;100491.37;;;28.27;29.19
69239;BME280;56349;51.816;-0.026;2023-05-09T09:15:35;100491.77;;;28.54;29.16
69239;BME280;56349;51.816;-0.026;2023-05-09T09:17:59;100492.25;;;28.36;29.12
69239;BME280;56349;51.816;-0.026;2023-05-09T09:20:26;100494.08;;;28.41;29.06
69239;BME280;56349;51.816;-0.026;2023-05-09T09:22:51;100490.18;;;28.67;29.04
69239;BME280;56349;51.816;-0.026;2023-05-09T09:25:16;100485.90;;;28.71;29.04
69239;BME280;56349;51.816;-0.026;2023-05-09T09:27:42;100488.13;;;28.75;29.02
69239;BME280;56349;51.816;-0.026;2023-05-09T09:30:09;100491.34;;;28.57;28.98
69239;BME280;56349;51.816;-0.026;2023-05-09T09:32:33;100492.11;;;28.60;28.92
69239;BME280;56349;51.816;-0.026;2023-05-09T09:35:03;100491.79;;;28.36;28.84
69239;BME280;56349;51.816;-0.026;2023-05-09T09:37:24;100491.75;;;28.64;28.79
69239;BME280;56349;51.816;-0.026;2023-05-09T09:39:54;100489.91;;;28.38;28.74
69239;BME280;56349;51.816;-0.026;2023-05-09T09:42:16;100488.34;;;28.63;28.72
69239;BME280;56349;51.816;-0.026;2023-05-09T09:44:42;100490.25;;;28.62;28.71
69239;BME280;56349;51.816;-0.026;2023-05-09T09:47:09;100489.09;;;28.63;28.68
69239;BME280;56349;51.816;-0.026;2023-05-09T09:49:33;100487.69;;;28.36;28.66
69239;BME280;56349;51.816;-0.026;2023-05-09T09:51:59;100488.53;;;28.63;28.64
69239;BME280;56349;51.816;-0.026;2023-05-09T09:54:26;100486.30;;;28.66;28.59
69239;BME280;56349;51.816;-0.026;2023-05-09T09:56:51;100489.00;;;28.39;28.57
69239;BME280;56349;51.816;-0.026;2023-05-09T09:59:17;100484.77;;;28.66;28.56
69239;BME280;56349;51.816;-0.026;2023-05-09T10:04:07;100479.39;;;28.77;28.45
69239;BME280;56349;51.816;-0.026;2023-05-09T10:06:33;100475.51;;;28.58;28.45
69239;BME280;56349;51.816;-0.026;2023-05-09T10:08:59;100470.30;;;28.60;28.42
69239;BME280;56349;51.816;-0.026;2023-05-09T10:11:24;100462.44;;;28.62;28.39
69239;BME280;56349;51.816;-0.026;2023-05-09T10:13:51;100461.91;;;28.68;28.28
69239;BME280;56349;51.816;-0.026;2023-05-09T10:16:16;100460.82;;;28.70;28.22
69239;BME280;56349;51.816;-0.026;2023-05-09T10:18:41;100464.42;;;28.71;28.22
69239;BME280;56349;51.816;-0.026;2023-05-09T10:21:10;100456.13;;;28.99;28.19
69239;BME280;56349;51.816;-0.026;2023-05-09T10:23:36;100455.30;;;29.01;28.16
69239;BME280;56349;51.816;-0.026;2023-05-09T10:26:04;100451.89;;;28.77;28.13
69239;BME280;56349;51.816;-0.026;2023-05-09T10:28:30;100450.14;;;28.77;28.12
69239;BME280;56349;51.816;-0.026;2023-05-09T10:30:55;100449.28;;;28.73;28.12
69239;BME280;56349;51.816;-0.026;2023-05-09T10:33:15;100446.77;;;28.69;28.11
69239;BME280;56349;51.816;-0.026;2023-05-09T10:35:43;100442.48;;;28.66;28.15
69239;BME280;56349;51.816;-0.026;2023-05-09T10:38:06;100437.95;;;28.63;28.16
69239;BME280;56349;51.816;-0.026;2023-05-09T10:40:31;100437.85;;;28.62;28.23
69239;BME280;56349;51.816;-0.026;2023-05-09T10:42:56;100439.86;;;28.68;28.13
69239;BME280;56349;51.816;-0.026;2023-05-09T10:45:22;100434.74;;;28.47;28.08
69239;BME280;56349;51.816;-0.026;2023-05-09T10:47:49;100431.73;;;28.73;28.04
69239;BME280;56349;51.816;-0.026;2023-05-09T10:50:14;100429.94;;;28.72;27.94
69239;BME280;56349;51.816;-0.026;2023-05-09T10:55:05;100430.66;;;28.68;28.05
69239;BME280;56349;51.816;-0.026;2023-05-09T10:57:31;100428.96;;;28.72;28.08
69239;BME280;56349;51.816;-0.026;2023-05-09T10:59:58;100426.22;;;28.74;28.05
69239;BME280;56349;51.816;-0.026;2023-05-09T11:02:23;100426.11;;;28.75;28.07
69239;BME280;56349;51.816;-0.026;2023-05-09T11:04:48;100425.86;;;28.77;28.16
69239;BME280;56349;51.816;-0.026;2023-05-09T11:07:22;100426.35;;;29.06;28.21
69239;BME280;56349;51.816;-0.026;2023-05-09T11:09:40;100425.76;;;28.82;28.30
69239;BME280;56349;51.816;-0.026;2023-05-09T11:12:09;100425.35;;;28.80;28.37
69239;BME280;56349;51.816;-0.026;2023-05-09T11:14:32;100427.46;;;29.02;28.43
69239;BME280;56349;51.816;-0.026;2023-05-09T11:16:57;100422.77;;;28.97;28.53
69239;BME280;56349;51.816;-0.026;2023-05-09T11:19:32;100423.58;;;28.43;28.59
69239;BME280;56349;51.816;-0.026;2023-05-09T11:24:16;100417.13;;;28.62;28.73
69239;BME280;56349;51.816;-0.026;2023-05-09T11:26:39;100412.83;;;28.91;28.77
69239;BME280;56349;51.816;-0.026;2023-05-09T11:29:05;100409.38;;;28.65;28.77
69239;BME280;56349;51.816;-0.026;2023-05-09T11:31:31;100410.28;;;28.92;28.78
69239;BME280;56349;51.816;-0.026;2023-05-09T11:34:00;100409.66;;;28.94;28.80
69239;BME280;56349;51.816;-0.026;2023-05-09T11:36:28;100406.48;;;28.97;28.79
69239;BME280;56349;51.816;-0.026;2023-05-09T11:41:14;100400.51;;;28.99;28.81
69239;BME280;56349;51.816;-0.026;2023-05-09T11:43:41;100399.48;;;28.99;28.81
69239;BME280;56349;51.816;-0.026;2023-05-09T11:46:05;100401.06;;;29.01;28.77
69239;BME280;56349;51.816;-0.026;2023-05-09T11:48:37;100397.82;;;29.01;28.79
69239;BME280;56349;51.816;-0.026;2023-05-09T11:50:57;100399.65;;;29.00;28.81
69239;BME280;56349;51.816;-0.026;2023-05-09T11:53:23;100395.80;;;28.72;28.81
69239;BME280;56349;51.816;-0.026;2023-05-09T11:55:49;100397.12;;;28.98;28.81
69239;BME280;56349;51.816;-0.026;2023-05-09T11:58:15;100394.45;;;28.99;28.81
69239;BME280;56349;51.816;-0.026;2023-05-09T12:00:43;100391.75;;;29.00;28.79
69239;BME280;56349;51.816;-0.026;2023-05-09T12:03:06;100388.66;;;29.00;28.82
69239;BME280;56349;51.816;-0.026;2023-05-09T12:05:32;100386.06;;;28.75;28.82
69239;BME280;56349;51.816;-0.026;2023-05-09T12:08:02;100384.13;;;28.54;28.82
69239;BME280;56349;51.816;-0.026;2023-05-09T12:10:23;100386.18;;;28.79;28.80
69239;BME280;56349;51.816;-0.026;2023-05-09T12:12:50;100386.46;;;28.80;28.78
69239;BME280;56349;51.816;-0.026;2023-05-09T12:15:14;100387.63;;;29.07;28.76
69239;BME280;56349;51.816;-0.026;2023-05-09T12:17:39;100384.31;;;29.05;28.79
69239;BME280;56349;51.816;-0.026;2023-05-09T12:20:05;100382.73;;;28.78;28.79
69239;BME280;56349;51.816;-0.026;2023-05-09T12:22:30;100380.17;;;29.07;28.76
69239;BME280;56349;51.816;-0.026;2023-05-09T12:24:56;100381.59;;;29.06;28.79
69239;BME280;56349;51.816;-0.026;2023-05-09T12:27:22;100385.83;;;28.82;28.80
69239;BME280;56349;51.816;-0.026;2023-05-09T12:29:47;100383.44;;;28.85;28.80
69239;BME280;56349;51.816;-0.026;2023-05-09T12:32:13;100384.61;;;28.88;28.80
69239;BME280;56349;51.816;-0.026;2023-05-09T12:34:37;100385.17;;;28.94;28.76
69239;BME280;56349;51.816;-0.026;2023-05-09T12:39:29;100379.10;;;29.23;28.39
69239;BME280;56349;51.816;-0.026;2023-05-09T12:41:55;100374.47;;;29.20;28.33
69239;BME280;56349;51.816;-0.026;2023-05-09T12:44:22;100376.67;;;29.18;28.29
69239;BME280;56349;51.816;-0.026;2023-05-09T12:46:52;100371.47;;;29.18;28.22
69239;BME280;56349;51.816;-0.026;2023-05-09T12:49:20;100366.67;;;29.18;28.18